Ofahoma, Mississippi
Current Conditions -  °F | °C
As of 8:54 PM on Friday 21 Nov 2014 (Local Time) from KJAN Reporting Station
Few Clouds Few Clouds  
Wind Chill: 53°   Ceiling: Unl
Heat Index: 53°   Visibility: 10mi
Dew Point: 45°   Wind: 5mph
Humidity: 74%   Direction: 110°ESE
Pressure: 30.29"   Gusts: NA
Location:  32.8169°N, 89.5441°W
Report Text: KJAN 220254Z 11004KT 10SM FEW100 12/07 A3029 RMK AO2 SLP255 T01170072 52007
Loading
Personal Weather Stations






























Interactive Weather Map New forecast layout! Learn more

10-Day Weather Forecast

Advertisements
Track Severe Weather on mobile